Ada, OK

12:16 PM CDT on September 02, 2014 (GMT -0500)
Ada Municipal | Change Station
CLOSE
Current Station
Airport
Location: Ada,
Elevation: 1017 ft
Nearby Weather Stations

Elev 1017 ft 34.80 °N, 96.67 °W | Updated 21 minutes ago

Overcast
Overcast
79 °F
Feels Like 79 °F
N
15
Wind Variable Wind from ESE
Gusts 22 mph

Today
High -- | Low -- °F
--% Chance of Precip.
Yesterday
High -- | Low -- °F
Precip. -- in
7:00 AM 7:51 PM
First Quarter, 53% visible
Pressure 30.06 in
Visibility 10.0 miles
Clouds Scattered Clouds 1900 ft
Overcast 2800 ft
Dew Point 73 °F
Humidity 83%
Rainfall 0.00 in
Snow Depth Not available.
UV 3 out of 12
Pollen 10.50 out of 12
Air Quality Not available.
Flu Activity Not available.
METAR KADH 021655Z AUTO 11013G19KT 10SM SCT019 OVC028 26/23 A3006 RMK AO2 LTG DSNT NW THRU NE

More Conditions Fewer Conditions

Pressure 30.06 in
Visibility 10.0 miles
Clouds Scattered Clouds 1900 ft
Overcast 2800 ft
Dew Point 73 °F
Humidity 83%
Rainfall 0.00 in
Snow Depth Not available.
UV 3 out of 12
Pollen 10.50 out of 12
Air Quality Not available.
Flu Activity Not available.
METAR KADH 021655Z AUTO 11013G19KT 10SM SCT019 OVC028 26/23 A3006 RMK AO2 LTG DSNT NW THRU NE

More Conditions Fewer Conditions

10-Day Weather Forecast

Almanac

Astronomy

Sep. 02, 2014 Rise Set
Actual Time 7:00 AM CDT 7:51 PM CDT
Civil Twilight 6:34 AM CDT 8:17 PM CDT
Nautical Twilight 6:04 AM CDT 8:47 PM CDT
Astronomical Twilight 5:32 AM CDT 9:19 PM CDT
Moon 2:28 PM CDT 12:11 AM CDT
Length of Visible Light 13h 42m
Length of Day
12h 51m
Tomorrow will be 2m 7s shorter.
First Quarter, 53% of the Moon is Illuminated
Today
First Quarter
Sep 8
Full
Sep 15
Last Quarter
Sep 24
New
Oct 1
First Quarter

Today's Extremes

State Highs State Lows

Community

WunderPhotos

Upload Photos

1,749,719 photos uploaded!

WunderBlogs® & News

By Dr. Jeff Masters
Director of Meteorology, Weather Underground
By Kari Strenfel
Meteorologist, Weather Underground
By Christopher C. Burt
Weather Historian, Weather Underground
September 2, 2014
September 2, 2014
September 2, 2014

Nearby

Snow Depth

Station Depth Elevation
No new snow has been reported.

Earthquake Activity

City Distance Mag. Time & Date
Helena, Oklahoma 151 miles 3.2 3:05 AM CDT
2014-09-02
Medford, Oklahoma 150 miles 3.3 11:58 PM CDT
2014-09-01
Perry, Oklahoma 106 miles 3.1 6:46 AM CDT
2014-09-01
Jones, Oklahoma 66 miles 3.1 1:49 PM CDT
2014-08-31
Minimum magnitude displayed is 2.5.

Coastal Water Temperatures

Place Temperature
No Stations Reporting

Nearby Weather Stations